createdAt,value
2018-07-02T00:00:17.170Z,70.90
2018-07-02T00:02:45.603Z,70.86
2018-07-02T00:05:14.102Z,71.52
2018-07-02T00:07:42.593Z,71.89
2018-07-02T00:10:11.326Z,71.03
2018-07-02T00:12:39.793Z,70.74
2018-07-02T00:15:08.404Z,71.47
2018-07-02T00:17:36.832Z,72.66
2018-07-02T00:20:06.896Z,73.28
2018-07-02T00:22:35.376Z,73.13
2018-07-02T00:25:03.959Z,72.75
2018-07-02T00:27:32.430Z,72.34
2018-07-02T00:30:00.946Z,72.22
2018-07-02T00:32:29.392Z,71.60
2018-07-02T00:34:58.024Z,72.69
2018-07-02T00:37:26.455Z,72.21
2018-07-02T00:39:54.950Z,72.15
2018-07-02T00:42:23.413Z,71.39
2018-07-02T00:44:51.958Z,72.26
2018-07-02T00:47:20.476Z,72.29
2018-07-02T00:49:49.426Z,71.84
2018-07-02T00:54:51.682Z,74.52
2018-07-02T00:57:20.187Z,75.75
2018-07-02T00:59:48.647Z,75.83
2018-07-02T01:02:17.107Z,76.00
2018-07-02T01:04:45.594Z,75.66
2018-07-02T01:07:14.025Z,74.44
2018-07-02T01:09:42.505Z,74.01
2018-07-02T01:12:11.078Z,74.33
2018-07-02T01:14:39.572Z,74.83
2018-07-02T01:17:08.225Z,75.29
2018-07-02T01:19:36.743Z,74.83
2018-07-02T01:22:05.203Z,74.57
2018-07-02T01:24:33.691Z,73.56
2018-07-02T01:27:02.213Z,73.26
2018-07-02T01:29:30.657Z,72.82
2018-07-02T01:31:59.158Z,72.81
2018-07-02T01:34:27.648Z,72.95
2018-07-02T01:36:56.139Z,73.53
2018-07-02T01:39:24.620Z,74.30
2018-07-02T01:41:53.349Z,74.57
2018-07-02T01:44:22.709Z,74.58
2018-07-02T01:46:51.303Z,74.12
2018-07-02T01:49:20.573Z,74.44
2018-07-02T01:51:49.575Z,75.33
2018-07-02T01:54:18.122Z,75.81
2018-07-02T01:56:47.049Z,76.42
2018-07-02T01:59:15.509Z,75.56
2018-07-02T02:01:44.029Z,75.19
2018-07-02T02:04:12.740Z,75.68
2018-07-02T02:06:41.081Z,75.95
2018-07-02T02:09:10.602Z,76.49
2018-07-02T02:11:39.013Z,75.67
2018-07-02T02:14:07.695Z,75.62
2018-07-02T02:16:36.372Z,75.19
2018-07-02T02:19:04.781Z,75.01
2018-07-02T02:21:33.086Z,74.20
2018-07-02T02:24:01.395Z,73.96
2018-07-02T02:26:29.839Z,74.43
2018-07-02T02:28:58.096Z,74.99
2018-07-02T02:31:26.405Z,75.65
2018-07-02T02:33:54.675Z,77.21
2018-07-02T02:36:23.012Z,77.28
2018-07-02T02:38:51.293Z,77.06
2018-07-02T02:41:19.657Z,77.09
2018-07-02T02:43:47.947Z,76.18
2018-07-02T02:46:16.297Z,75.03
2018-07-02T02:48:44.607Z,74.06
2018-07-02T02:51:13.035Z,74.70
2018-07-02T02:53:41.295Z,74.99
2018-07-02T02:56:09.602Z,74.94
2018-07-02T02:58:37.931Z,74.52
2018-07-02T03:01:06.246Z,73.96
2018-07-02T03:03:35.131Z,74.01
2018-07-02T03:06:03.442Z,75.83
2018-07-02T03:08:31.775Z,75.90
2018-07-02T03:11:00.165Z,76.05
2018-07-02T03:13:28.435Z,76.97
2018-07-02T03:15:56.778Z,78.21
2018-07-02T03:18:25.028Z,78.65
2018-07-02T03:20:53.889Z,78.63
2018-07-02T03:23:22.247Z,78.25
2018-07-02T03:25:50.618Z,77.68
2018-07-02T03:28:18.913Z,76.67
2018-07-02T03:30:47.463Z,76.13
2018-07-02T03:33:15.779Z,76.03
2018-07-02T03:35:44.051Z,75.26
2018-07-02T03:38:12.351Z,75.44
2018-07-02T03:40:40.675Z,75.49
2018-07-02T03:43:09.093Z,74.48
2018-07-02T03:45:37.346Z,75.51
2018-07-02T03:48:05.681Z,76.37
2018-07-02T03:50:33.977Z,75.30
2018-07-02T03:53:02.285Z,75.84
2018-07-02T03:55:30.589Z,75.92
2018-07-02T03:57:59.090Z,74.39
2018-07-02T04:00:27.434Z,74.02
2018-07-02T04:02:55.786Z,74.42
2018-07-02T04:05:24.118Z,75.63
2018-07-02T04:07:52.468Z,76.91
2018-07-02T04:10:20.895Z,76.45
2018-07-02T04:12:49.316Z,74.93
2018-07-02T04:15:17.678Z,74.71
2018-07-02T04:17:45.987Z,72.90
2018-07-02T04:20:14.518Z,72.33
2018-07-02T04:22:42.913Z,73.30
2018-07-02T04:25:11.246Z,72.71
2018-07-02T04:27:39.558Z,73.71
2018-07-02T04:30:07.992Z,72.85
2018-07-02T04:32:36.363Z,73.01
2018-07-02T04:35:04.606Z,72.90
2018-07-02T04:37:32.915Z,72.07
2018-07-02T04:40:01.177Z,72.46
2018-07-02T04:42:29.506Z,71.23
2018-07-02T04:44:57.867Z,70.75
2018-07-02T04:47:26.981Z,70.87
2018-07-02T04:49:54.438Z,70.45
2018-07-02T04:52:22.806Z,69.33
2018-07-02T04:54:51.310Z,69.44
2018-07-02T04:57:19.657Z,69.16
2018-07-02T04:59:48.004Z,69.26
2018-07-02T05:02:16.262Z,68.82
2018-07-02T05:04:44.657Z,68.30
2018-07-02T05:07:12.947Z,67.92
2018-07-02T05:09:41.280Z,66.21
2018-07-02T05:12:11.150Z,65.25
2018-07-02T05:14:39.919Z,64.18
2018-07-02T05:17:08.299Z,63.41
2018-07-02T05:19:38.363Z,63.80
2018-07-02T05:22:06.875Z,61.83
2018-07-02T05:24:35.231Z,61.80
2018-07-02T05:27:03.478Z,61.49
2018-07-02T05:29:31.875Z,61.64
2018-07-02T05:32:00.133Z,61.38
2018-07-02T05:34:28.434Z,60.30
2018-07-02T05:36:56.686Z,60.44
2018-07-02T05:39:24.984Z,59.99
2018-07-02T05:41:53.234Z,60.37
2018-07-02T05:44:21.535Z,59.75
2018-07-02T05:46:49.817Z,59.35
2018-07-02T05:49:21.313Z,59.43
2018-07-02T05:51:49.595Z,59.29
2018-07-02T05:54:17.882Z,58.99
2018-07-02T05:56:46.766Z,59.16
2018-07-02T05:59:15.083Z,58.41
2018-07-02T06:01:43.362Z,58.26
2018-07-02T06:04:11.695Z,58.35
2018-07-02T06:06:39.939Z,57.50
2018-07-02T06:09:10.207Z,57.95
2018-07-02T06:11:39.067Z,58.33
2018-07-02T06:14:07.414Z,57.84
2018-07-02T06:16:35.743Z,57.67
2018-07-02T06:19:04.022Z,58.22
2018-07-02T06:21:32.282Z,57.21
2018-07-02T06:24:00.763Z,57.62
2018-07-02T06:26:29.181Z,57.23
2018-07-02T06:28:57.471Z,56.64
2018-07-02T06:31:25.740Z,57.56
2018-07-02T06:33:54.031Z,56.76
2018-07-02T06:36:22.376Z,55.82
2018-07-02T06:38:50.995Z,56.39
2018-07-02T06:41:19.250Z,56.02
2018-07-02T06:43:47.548Z,56.51
2018-07-02T06:46:15.839Z,56.66
2018-07-02T06:48:44.137Z,56.19
2018-07-02T06:51:12.504Z,56.17
2018-07-02T06:53:40.799Z,56.22
2018-07-02T06:56:09.074Z,55.60
2018-07-02T06:58:37.764Z,56.07
2018-07-02T07:01:06.072Z,54.85
2018-07-02T07:03:34.385Z,55.30
2018-07-02T07:06:02.680Z,54.54
2018-07-02T07:08:31.157Z,54.65
2018-07-02T07:10:59.432Z,54.79
2018-07-02T07:13:27.751Z,53.31
2018-07-02T07:15:56.043Z,52.58
2018-07-02T07:18:24.440Z,52.50
2018-07-02T07:20:52.725Z,52.80
2018-07-02T07:23:21.122Z,52.85
2018-07-02T07:25:49.412Z,52.30
2018-07-02T07:28:17.768Z,52.33
2018-07-02T07:30:46.155Z,52.00
2018-07-02T07:33:14.494Z,51.81
2018-07-02T07:35:42.900Z,52.17
2018-07-02T07:38:11.184Z,51.06
2018-07-02T07:40:40.280Z,51.45
2018-07-02T07:43:08.554Z,51.58
2018-07-02T07:45:36.864Z,50.93
2018-07-02T07:48:05.296Z,50.78
2018-07-02T07:50:33.940Z,50.00
2018-07-02T07:53:02.258Z,50.71
2018-07-02T07:55:30.651Z,48.27
2018-07-02T07:57:58.982Z,47.73
2018-07-02T08:00:27.297Z,48.01
2018-07-02T08:02:55.596Z,46.69
2018-07-02T08:05:24.048Z,47.23
2018-07-02T08:07:52.344Z,48.44
2018-07-02T08:10:20.668Z,48.97
2018-07-02T08:12:48.961Z,47.67
2018-07-02T08:15:17.440Z,48.04
2018-07-02T08:17:45.764Z,47.50
2018-07-02T08:20:14.092Z,47.14
2018-07-02T08:22:42.375Z,46.03
2018-07-02T08:25:10.671Z,46.01
2018-07-02T08:27:39.056Z,45.44
2018-07-02T08:30:07.717Z,45.41
2018-07-02T08:32:35.989Z,45.61
2018-07-02T08:35:04.285Z,45.25
2018-07-02T08:37:32.651Z,43.57
2018-07-02T08:40:00.962Z,43.28
2018-07-02T08:42:29.225Z,42.40
2018-07-02T08:44:57.551Z,43.46
2018-07-02T08:47:25.824Z,42.23
2018-07-02T08:49:54.118Z,41.06
2018-07-02T08:52:22.396Z,40.85
2018-07-02T08:54:50.711Z,43.78
2018-07-02T08:57:19.074Z,41.54
2018-07-02T08:59:47.441Z,42.72
2018-07-02T09:02:15.712Z,39.40
2018-07-02T09:04:43.995Z,41.30
2018-07-02T09:07:12.255Z,41.50
2018-07-02T09:09:40.560Z,39.84
2018-07-02T09:12:08.871Z,40.87
2018-07-02T09:14:37.209Z,40.29
2018-07-02T09:17:05.468Z,39.39
2018-07-02T09:19:33.852Z,40.22
2018-07-02T09:22:02.131Z,39.98
2018-07-02T09:24:30.405Z,39.18
2018-07-02T09:26:58.667Z,41.08
2018-07-02T09:29:26.941Z,40.24
2018-07-02T09:31:55.214Z,40.85
2018-07-02T09:34:23.523Z,41.26
2018-07-02T09:36:51.828Z,39.57
2018-07-02T09:39:20.084Z,39.96
2018-07-02T09:41:48.501Z,40.61
2018-07-02T09:44:16.807Z,39.33
2018-07-02T09:46:45.122Z,39.00
2018-07-02T09:49:13.396Z,38.00
2018-07-02T09:51:41.715Z,38.79
2018-07-02T09:54:09.966Z,39.53
2018-07-02T09:56:38.259Z,39.01
2018-07-02T09:59:06.590Z,39.77
2018-07-02T10:01:34.826Z,38.98
2018-07-02T10:04:03.086Z,39.26
2018-07-02T10:06:31.388Z,39.74
2018-07-02T10:08:59.723Z,38.65
2018-07-02T10:11:28.033Z,38.27
2018-07-02T10:13:56.291Z,38.17
2018-07-02T10:16:24.610Z,38.21
2018-07-02T10:18:52.902Z,37.55
2018-07-02T10:21:21.210Z,39.26
2018-07-02T10:23:49.538Z,38.43
2018-07-02T10:26:17.819Z,37.90
2018-07-02T10:28:46.078Z,37.56
2018-07-02T10:31:14.405Z,38.54
2018-07-02T10:33:42.913Z,37.89
2018-07-02T10:36:11.266Z,37.46
2018-07-02T10:38:39.534Z,37.67
2018-07-02T10:41:07.832Z,37.28
2018-07-02T10:43:36.090Z,37.59
2018-07-02T10:46:04.385Z,38.29
2018-07-02T10:48:32.649Z,37.76
2018-07-02T10:51:01.118Z,36.67
2018-07-02T10:53:29.407Z,37.40
2018-07-02T10:55:57.739Z,37.91
2018-07-02T10:58:26.007Z,37.58
2018-07-02T11:00:54.337Z,37.88
2018-07-02T11:03:22.635Z,37.74
2018-07-02T11:05:50.958Z,37.76
2018-07-02T11:08:19.249Z,35.92
2018-07-02T11:10:47.653Z,36.20
2018-07-02T11:13:15.907Z,37.23
2018-07-02T11:15:44.438Z,35.97
2018-07-02T11:18:12.822Z,37.54
2018-07-02T11:20:41.809Z,37.65
2018-07-02T11:23:10.134Z,36.53
2018-07-02T11:25:39.923Z,35.68
2018-07-02T11:28:08.342Z,36.30
2018-07-02T11:30:36.774Z,35.35
2018-07-02T11:33:05.226Z,35.12
2018-07-02T11:35:33.508Z,36.23
2018-07-02T11:38:01.825Z,35.91
2018-07-02T11:40:30.354Z,36.58
2018-07-02T11:42:58.686Z,35.56
2018-07-02T11:45:26.934Z,35.94
2018-07-02T11:47:55.242Z,36.83
2018-07-02T11:50:23.491Z,35.66
2018-07-02T11:52:51.782Z,36.29
2018-07-02T11:55:20.038Z,36.00
2018-07-02T11:57:48.319Z,36.07
2018-07-02T12:00:16.565Z,35.20
2018-07-02T12:02:44.889Z,35.26
2018-07-02T12:05:13.241Z,34.35
2018-07-02T12:07:41.526Z,34.10
2018-07-02T12:10:09.783Z,32.79
2018-07-02T12:12:38.070Z,34.45
2018-07-02T12:15:06.382Z,34.12
2018-07-02T12:17:34.695Z,35.90
2018-07-02T12:20:03.038Z,35.71
2018-07-02T12:22:31.335Z,33.61
2018-07-02T12:24:59.582Z,33.89
2018-07-02T12:27:27.866Z,34.50
2018-07-02T12:29:56.114Z,35.28
2018-07-02T12:32:24.407Z,34.37
2018-07-02T12:34:52.735Z,33.91
2018-07-02T12:37:21.025Z,34.73
2018-07-02T12:39:49.286Z,33.38
2018-07-02T12:42:17.568Z,33.39
2018-07-02T12:44:45.840Z,34.12
2018-07-02T12:47:14.136Z,34.30
2018-07-02T12:49:42.491Z,34.44
2018-07-02T12:52:10.803Z,33.56
2018-07-02T12:54:39.071Z,32.46
2018-07-02T12:57:07.412Z,33.53
2018-07-02T12:59:35.664Z,33.61
2018-07-02T13:02:03.961Z,33.26
2018-07-02T13:04:32.217Z,33.50
2018-07-02T13:07:00.507Z,32.68
2018-07-02T13:09:28.747Z,32.64
2018-07-02T13:11:57.157Z,31.67
2018-07-02T13:14:25.454Z,31.79
2018-07-02T13:16:53.726Z,32.26
2018-07-02T13:19:22.067Z,31.59
2018-07-02T13:21:50.338Z,31.71
2018-07-02T13:24:18.695Z,32.29
2018-07-02T13:26:46.977Z,31.83
2018-07-02T13:29:15.273Z,31.63
2018-07-02T13:31:43.528Z,31.50
2018-07-02T13:34:11.803Z,32.08
2018-07-02T13:36:40.091Z,31.21
2018-07-02T13:39:08.992Z,32.85
2018-07-02T13:41:37.286Z,32.21
2018-07-02T13:44:06.250Z,30.94
2018-07-02T13:46:35.004Z,31.37
2018-07-02T13:49:03.291Z,30.37
2018-07-02T13:51:31.525Z,30.16
2018-07-02T13:53:59.802Z,30.53
2018-07-02T13:56:28.057Z,30.18
2018-07-02T13:58:56.368Z,30.17
2018-07-02T14:01:24.627Z,29.95
2018-07-02T14:03:52.902Z,31.48
2018-07-02T14:06:21.141Z,29.44
2018-07-02T14:08:49.465Z,30.38
2018-07-02T14:11:18.031Z,29.48
2018-07-02T14:13:46.330Z,30.60
2018-07-02T14:16:14.590Z,29.76
2018-07-02T14:18:42.899Z,29.15
2018-07-02T14:21:11.189Z,29.54
2018-07-02T14:23:40.295Z,31.34
2018-07-02T14:26:08.535Z,30.32
2018-07-02T14:28:36.814Z,30.65
2018-07-02T14:31:05.186Z,29.42
2018-07-02T14:33:33.478Z,30.44
2018-07-02T14:36:01.732Z,29.43
2018-07-02T14:38:30.065Z,29.66
2018-07-02T14:40:58.330Z,29.24
2018-07-02T14:43:26.623Z,30.53
2018-07-02T14:45:54.879Z,28.93
2018-07-02T14:48:23.155Z,29.69
2018-07-02T14:50:53.402Z,28.80
2018-07-02T14:53:21.690Z,30.00
2018-07-02T14:55:49.955Z,29.58
2018-07-02T14:58:18.263Z,29.50
2018-07-02T15:00:46.527Z,28.99
2018-07-02T15:03:14.855Z,29.16
2018-07-02T15:05:43.115Z,29.13
2018-07-02T15:08:11.537Z,28.45
2018-07-02T15:10:39.794Z,28.33
2018-07-02T15:13:08.046Z,28.48
2018-07-02T15:15:36.375Z,29.29
2018-07-02T15:18:04.746Z,29.25
2018-07-02T15:20:33.037Z,29.84
2018-07-02T15:23:01.335Z,29.55
2018-07-02T15:25:29.585Z,29.82
2018-07-02T15:27:57.828Z,29.63
2018-07-02T15:30:26.115Z,29.84
2018-07-02T15:32:54.354Z,29.44
2018-07-02T15:35:22.634Z,29.17
2018-07-02T15:37:50.886Z,28.93
2018-07-02T15:40:19.178Z,28.99
2018-07-02T15:42:47.427Z,29.03
2018-07-02T15:45:15.701Z,28.80
2018-07-02T15:47:43.990Z,29.90
2018-07-02T15:50:12.339Z,29.56
2018-07-02T15:52:40.522Z,29.17
2018-07-02T15:55:08.825Z,29.25
2018-07-02T15:57:37.123Z,29.37
2018-07-02T16:00:05.969Z,29.71
2018-07-02T16:02:34.230Z,28.58
2018-07-02T16:05:02.512Z,28.17
2018-07-02T16:07:30.783Z,28.38
2018-07-02T16:09:59.071Z,28.58
2018-07-02T16:12:27.649Z,28.50
2018-07-02T16:14:56.134Z,28.17
2018-07-02T16:17:24.491Z,27.30
2018-07-02T16:19:52.788Z,27.43
2018-07-02T16:22:21.067Z,27.45
2018-07-02T16:24:49.378Z,28.02
2018-07-02T16:27:17.632Z,27.09
2018-07-02T16:29:45.946Z,28.18
2018-07-02T16:32:14.221Z,27.66
2018-07-02T16:34:42.549Z,28.09
2018-07-02T16:37:10.804Z,27.35
2018-07-02T16:39:39.104Z,27.42
2018-07-02T16:42:07.350Z,27.79
2018-07-02T16:44:35.619Z,27.12
2018-07-02T16:47:03.905Z,26.85
2018-07-02T16:49:32.175Z,27.01
2018-07-02T16:52:00.558Z,27.49
2018-07-02T16:54:29.144Z,27.06
2018-07-02T16:56:57.419Z,26.91
2018-07-02T16:59:25.714Z,27.21
2018-07-02T17:01:54.026Z,27.52
2018-07-02T17:04:22.453Z,26.65
2018-07-02T17:06:50.767Z,27.87
2018-07-02T17:09:19.078Z,27.56
2018-07-02T17:11:47.366Z,28.01
2018-07-02T17:14:15.762Z,28.18
2018-07-02T17:16:44.081Z,26.85
2018-07-02T17:19:12.477Z,27.74
2018-07-02T17:21:40.906Z,27.04
2018-07-02T17:24:09.164Z,27.95
2018-07-02T17:26:37.674Z,28.91
2018-07-02T17:29:05.999Z,27.54
2018-07-02T17:31:34.298Z,28.44
2018-07-02T17:34:02.575Z,27.21
2018-07-02T17:36:30.967Z,27.61
2018-07-02T17:38:59.329Z,27.29
2018-07-02T17:41:27.613Z,27.52
2018-07-02T17:43:55.862Z,28.32
2018-07-02T17:46:24.255Z,28.25
2018-07-02T17:48:52.512Z,28.13
2018-07-02T17:51:20.821Z,27.08
2018-07-02T17:53:49.145Z,27.15
2018-07-02T17:56:19.613Z,26.79
2018-07-02T17:58:48.986Z,27.91
2018-07-02T18:01:17.279Z,27.05
2018-07-02T18:03:45.583Z,27.25
2018-07-02T18:06:13.870Z,27.87
2018-07-02T18:08:42.135Z,28.10
2018-07-02T18:11:10.422Z,28.58
2018-07-02T18:13:38.718Z,28.30
2018-07-02T18:16:07.122Z,28.86
2018-07-02T18:18:35.442Z,28.41
2018-07-02T18:21:03.914Z,28.80
2018-07-02T18:23:32.219Z,28.35
2018-07-02T18:26:00.522Z,27.82
2018-07-02T18:28:29.090Z,29.08
2018-07-02T18:30:57.483Z,29.55
2018-07-02T18:33:25.828Z,29.01
2018-07-02T18:35:54.117Z,29.59
2018-07-02T18:38:22.413Z,30.45
2018-07-02T18:40:50.818Z,31.38
2018-07-02T18:43:19.121Z,30.06
2018-07-02T18:45:47.353Z,30.70
2018-07-02T18:48:15.736Z,31.08
2018-07-02T18:50:44.168Z,30.22
2018-07-02T18:53:12.430Z,30.13
2018-07-02T18:55:40.727Z,30.77
2018-07-02T18:58:08.994Z,31.20
2018-07-02T19:00:37.287Z,32.88
2018-07-02T19:03:05.866Z,40.80
2018-07-02T19:05:34.343Z,41.61
2018-07-02T19:08:02.611Z,41.89
2018-07-02T19:10:30.925Z,42.19
2018-07-02T19:12:59.284Z,43.65
2018-07-02T19:15:27.658Z,41.90
2018-07-02T19:17:55.948Z,41.91
2018-07-02T19:20:32.125Z,42.55
2018-07-02T19:23:07.660Z,43.39
2018-07-02T19:25:39.688Z,43.57
2018-07-02T19:28:11.135Z,45.07
2018-07-02T19:30:45.528Z,46.09
2018-07-02T19:33:19.746Z,47.34
2018-07-02T19:36:04.277Z,47.36
2018-07-02T19:38:46.714Z,48.88
2018-07-02T19:41:32.933Z,49.92
2018-07-02T19:44:32.459Z,52.04
2018-07-02T19:47:12.144Z,52.88
2018-07-02T19:49:59.167Z,51.64
2018-07-02T19:52:27.518Z,51.11
2018-07-02T19:54:55.942Z,50.38
2018-07-02T19:57:24.338Z,50.89
2018-07-02T19:59:53.252Z,51.13
2018-07-02T20:02:21.777Z,52.66
2018-07-02T20:04:50.161Z,52.25
2018-07-02T20:07:18.681Z,52.44
2018-07-02T20:09:46.942Z,55.01
2018-07-02T20:12:15.314Z,56.37
2018-07-02T20:14:43.889Z,56.01
2018-07-02T20:17:12.221Z,55.42
2018-07-02T20:19:40.614Z,54.92
2018-07-02T20:22:09.043Z,55.52
2018-07-02T20:24:37.382Z,55.90
2018-07-02T20:27:05.817Z,56.18
2018-07-02T20:29:34.340Z,56.54
2018-07-02T20:32:02.651Z,57.22
2018-07-02T20:34:30.945Z,56.23
2018-07-02T20:36:59.293Z,56.21
2018-07-02T20:39:28.000Z,57.03
2018-07-02T20:41:56.282Z,57.26
2018-07-02T20:44:24.580Z,58.08
2018-07-02T20:46:55.077Z,58.28
2018-07-02T20:49:23.707Z,58.43
2018-07-02T20:51:52.028Z,58.27
2018-07-02T20:54:20.420Z,60.79
2018-07-02T20:56:48.825Z,59.96
2018-07-02T20:59:17.133Z,59.38
2018-07-02T21:01:45.449Z,60.29
2018-07-02T21:04:14.507Z,60.61
2018-07-02T21:06:42.786Z,61.19
2018-07-02T21:09:11.710Z,61.53
2018-07-02T21:11:40.060Z,61.35
2018-07-02T21:14:10.932Z,62.25
2018-07-02T21:16:42.267Z,61.32
2018-07-02T21:19:10.603Z,60.86
2018-07-02T21:21:38.963Z,61.54
2018-07-02T21:24:42.036Z,61.52
2018-07-02T21:27:10.419Z,61.39
2018-07-02T21:29:38.810Z,61.96
2018-07-02T21:32:07.166Z,61.85
2018-07-02T21:34:35.543Z,62.08
2018-07-02T21:37:03.907Z,62.96
2018-07-02T21:39:32.267Z,63.40
2018-07-02T21:42:00.582Z,63.46
2018-07-02T21:44:28.867Z,62.95
2018-07-02T21:46:57.146Z,63.10
2018-07-02T21:49:25.455Z,64.47
2018-07-02T21:51:53.711Z,63.85
2018-07-02T21:54:22.010Z,64.13
2018-07-02T21:56:50.421Z,64.82
2018-07-02T21:59:18.706Z,64.86
2018-07-02T22:01:47.081Z,64.43
2018-07-02T22:04:15.441Z,64.70
2018-07-02T22:06:43.767Z,64.96
2018-07-02T22:09:12.556Z,65.64
2018-07-02T22:11:40.825Z,65.59
2018-07-02T22:14:09.122Z,65.51
2018-07-02T22:16:37.410Z,65.40
2018-07-02T22:19:05.926Z,65.71
2018-07-02T22:21:34.247Z,65.38
2018-07-02T22:24:02.528Z,64.31
2018-07-02T22:26:34.067Z,65.60
2018-07-02T22:29:02.454Z,67.33
2018-07-02T22:31:30.775Z,67.10
2018-07-02T22:33:59.107Z,66.91
2018-07-02T22:36:27.449Z,66.30
2018-07-02T22:38:55.778Z,66.58
2018-07-02T22:41:24.035Z,67.11
2018-07-02T22:43:52.379Z,67.51
2018-07-02T22:46:20.636Z,67.67
2018-07-02T22:48:49.551Z,67.75
2018-07-02T22:51:17.855Z,67.62
2018-07-02T22:53:46.216Z,67.62
2018-07-02T22:56:14.512Z,67.69
2018-07-02T22:58:43.010Z,68.26
2018-07-02T23:01:11.319Z,68.13
2018-07-02T23:03:39.622Z,68.57
2018-07-02T23:06:07.897Z,68.25
2018-07-02T23:08:36.191Z,68.32
2018-07-02T23:11:04.455Z,68.86
2018-07-02T23:13:32.754Z,69.57
2018-07-02T23:16:02.955Z,69.27
2018-07-02T23:18:32.264Z,69.06
2018-07-02T23:21:00.581Z,69.01
2018-07-02T23:23:28.899Z,69.41
2018-07-02T23:25:57.192Z,70.28
2018-07-02T23:28:25.482Z,70.14
2018-07-02T23:30:53.770Z,69.96
2018-07-02T23:33:22.086Z,69.99
2018-07-02T23:35:50.330Z,70.29
2018-07-02T23:38:18.630Z,70.50
2018-07-02T23:40:46.890Z,72.01
2018-07-02T23:43:15.194Z,71.48
2018-07-02T23:45:43.501Z,70.18
2018-07-02T23:48:11.799Z,69.57
2018-07-02T23:50:40.094Z,69.85
2018-07-02T23:53:08.357Z,70.20
2018-07-02T23:55:36.780Z,70.53
2018-07-02T23:58:05.126Z,71.27
